Guerrero Negro Airport


Codes: MMGR/GUB
Name: Guerrero Negro Airport
City: Guerrero Negro
Country: Mexico
Elevation: 59 ft.
Wikipedia:

Photos at Guerrero Negro Airport


   Photos courtesy of SpottingLog. You can add your own sightings and photos by signing up for a free trial today.



No photos found.

Weather at Guerrero Negro Airport


Time (UTC)DescriptionTempratureWindCloud coverageVisibilityPressureHumidity
25-Jun-2024 15:00Clear Sky19°C13 mph, NW2%10000m1014hPa82%
25-Jun-2024 18:00Clear Sky22°C16 mph, NW4%10000m1014hPa70%
25-Jun-2024 21:00Clear Sky24°C20 mph, NW9%10000m1014hPa61%
26-Jun-2024 00:00Clear Sky22°C20 mph, NW8%10000m1013hPa70%
26-Jun-2024 03:00Clear Sky19°C18 mph, NW5%10000m1014hPa88%
26-Jun-2024 06:00Few Clouds18°C13 mph, NW21%10000m1016hPa91%
26-Jun-2024 09:00Broken Clouds18°C13 mph, NW57%10000m1014hPa93%
26-Jun-2024 12:00Broken Clouds18°C16 mph, NW63%10000m1015hPa85%
26-Jun-2024 15:00Overcast Clouds19°C13 mph, NW95%10000m1015hPa77%
26-Jun-2024 18:00Broken Clouds22°C16 mph, NW73%10000m1015hPa65%
26-Jun-2024 21:00Few Clouds23°C20 mph, NW13%10000m1013hPa62%
27-Jun-2024 00:00Few Clouds21°C22 mph, NW11%10000m1012hPa69%
27-Jun-2024 03:00Scattered Clouds18°C18 mph, NW37%10000m1013hPa85%
27-Jun-2024 06:00Scattered Clouds18°C16 mph, NW31%10000m1013hPa87%
27-Jun-2024 09:00Clear Sky17°C11 mph, NW0%10000m1012hPa87%
27-Jun-2024 12:00Few Clouds17°C9 mph, NW20%10000m1012hPa87%
27-Jun-2024 15:00Clear Sky20°C16 mph, NW4%10000m1012hPa68%
27-Jun-2024 18:00Clear Sky23°C16 mph, NW4%10000m1011hPa52%
27-Jun-2024 21:00Clear Sky24°C18 mph, NW3%10000m1010hPa48%
28-Jun-2024 00:00Clear Sky22°C20 mph, NW2%10000m1008hPa58%
28-Jun-2024 03:00Clear Sky19°C18 mph, NW2%10000m1009hPa77%
28-Jun-2024 06:00Clear Sky18°C13 mph, NW4%10000m1010hPa83%
28-Jun-2024 09:00Clear Sky17°C11 mph, NW6%10000m1009hPa86%
28-Jun-2024 12:00Clear Sky17°C9 mph, NW7%10000m1009hPa88%
28-Jun-2024 15:00Few Clouds20°C9 mph, NW11%10000m1010hPa70%
28-Jun-2024 18:00Few Clouds24°C11 mph, NW11%10000m1010hPa55%
28-Jun-2024 21:00Few Clouds25°C16 mph, NW11%10000m1009hPa53%
29-Jun-2024 00:00Clear Sky22°C18 mph, NW7%10000m1008hPa64%
29-Jun-2024 03:00Clear Sky18°C16 mph, NW2%10000m1009hPa82%
29-Jun-2024 06:00Clear Sky18°C11 mph, NW3%10000m1011hPa85%
29-Jun-2024 09:00Clear Sky17°C9 mph, NW6%10000m1010hPa89%
29-Jun-2024 12:00Scattered Clouds17°C9 mph, NW48%10000m1010hPa93%
29-Jun-2024 15:00Overcast Clouds19°C11 mph, NW87%10000m1011hPa75%
29-Jun-2024 18:00Broken Clouds23°C13 mph, NW56%10000m1011hPa54%
29-Jun-2024 21:00Scattered Clouds24°C18 mph, NW35%10000m1010hPa52%
30-Jun-2024 00:00Broken Clouds21°C20 mph, NW67%10000m1009hPa67%
30-Jun-2024 03:00Overcast Clouds18°C13 mph, NW94%10000m1011hPa85%
30-Jun-2024 06:00Scattered Clouds18°C11 mph, NW49%10000m1012hPa88%
30-Jun-2024 09:00Scattered Clouds17°C9 mph, NW36%10000m1011hPa90%
30-Jun-2024 12:00Scattered Clouds17°C9 mph, NW49%10000m1011hPa92%